Time;durP1;ratioP1;P1;durP2;ratioP2;P2;SDS_P1;SDS_P2;PMS_P1;PMS_P2;Temp;Humidity;BMP_temperature;BMP_pressure;BME280_temperature;BME280_humidity;BME280_pressure;Samples;Min_cycle;Max_cycle;Signal;HPM_P1;HPM_P2
2023/11/26 00:01:16;;;;;;;;;;;;;;;1.98;66.11;100454.72;4218152;28;20019;-68
2023/11/26 00:03:19;;;;;;;;;;;;;;;2.00;66.13;100467.94;4203691;28;20023;-67
2023/11/26 00:05:22;;;;;;;;;;;;;;;1.98;65.67;100460.06;4221541;28;20030;-67
2023/11/26 00:07:23;;;;;;;;;;;;;;;1.96;65.55;100457.53;4218836;28;20023;-67
2023/11/26 00:09:25;;;;;;;;;;;;;;;1.96;65.54;100467.34;4219838;28;19928;-71
2023/11/26 00:11:27;;;;;;;;;;;;;;;1.95;65.35;100463.81;4220624;28;20030;-67
2023/11/26 00:13:29;;;;;;;;;;;;;;;1.95;65.44;100468.31;4220940;28;20376;-67
2023/11/26 00:15:31;;;;;;;;;;;;;;;1.95;65.29;100465.66;4217379;28;20019;-69
2023/11/26 00:17:32;;;;;;;;;;;;;;;1.94;65.37;100463.94;4221040;28;20046;-70
2023/11/26 00:19:35;;;;;;;;;;;;;;;1.94;65.69;100467.47;4220625;28;20421;-68
2023/11/26 00:21:38;;;;;;;;;;;;;;;1.93;65.89;100467.59;4220934;28;20434;-68
2023/11/26 00:23:39;;;;;;;;;;;;;;;1.92;65.97;100472.06;4220442;28;20031;-69
2023/11/26 00:25:41;;;;;;;;;;;;;;;1.94;65.90;100479.91;4220994;28;20018;-69
2023/11/26 00:27:43;;;;;;;;;;;;;;;1.94;65.85;100480.78;4220626;28;20016;-69
2023/11/26 00:29:44;;;;;;;;;;;;;;;1.93;65.58;100481.75;4219652;28;20505;-68
2023/11/26 00:31:47;;;;;;;;;;;;;;;1.94;65.71;100480.78;4220064;28;19924;-68
2023/11/26 00:33:49;;;;;;;;;;;;;;;1.92;65.54;100485.38;4220163;27;20447;-70
2023/11/26 00:35:52;;;;;;;;;;;;;;;1.93;65.71;100486.25;4219351;28;20097;-68
2023/11/26 00:37:54;;;;;;;;;;;;;;;1.92;65.48;100489.88;4220929;28;20018;-67
2023/11/26 00:39:55;;;;;;;;;;;;;;;1.91;65.61;100489.03;4220246;27;20107;-68
2023/11/26 00:41:57;;;;;;;;;;;;;;;1.93;65.07;100496.91;4218820;28;19927;-69
2023/11/26 00:43:59;;;;;;;;;;;;;;;1.92;65.25;100501.34;4219755;28;20063;-69
2023/11/26 00:46:01;;;;;;;;;;;;;;;1.92;64.73;100500.53;4219070;28;20026;-71
2023/11/26 00:48:03;;;;;;;;;;;;;;;1.91;63.88;100513.00;4219548;28;20023;-69
2023/11/26 00:50:05;;;;;;;;;;;;;;;1.90;63.98;100507.81;4219228;28;20030;-69
2023/11/26 00:52:08;;;;;;;;;;;;;;;1.91;63.88;100514.81;4219338;28;20019;-68
2023/11/26 00:54:09;;;;;;;;;;;;;;;1.90;64.04;100516.63;4220786;28;20433;-69
2023/11/26 00:56:11;;;;;;;;;;;;;;;1.89;64.07;100519.41;4220639;28;19924;-67
2023/11/26 00:58:13;;;;;;;;;;;;;;;1.88;64.17;100512.38;4220268;28;20010;-70
2023/11/26 01:00:15;;;;;;;;;;;;;;;1.89;64.36;100514.09;4219192;28;20031;-68
2023/11/26 01:02:19;;;;;;;;;;;;;;;1.88;64.17;100520.38;4219233;28;19971;-67
2023/11/26 01:04:21;;;;;;;;;;;;;;;1.88;63.75;100525.69;4220195;28;20015;-69
2023/11/26 01:06:22;;;;;;;;;;;;;;;1.87;63.77;100524.03;4216534;28;20018;-69
2023/11/26 01:08:26;;;;;;;;;;;;;;;1.87;63.41;100530.19;4217780;28;20586;-68
2023/11/26 01:10:28;;;;;;;;;;;;;;;1.85;63.40;100525.94;4217368;28;20019;-69
2023/11/26 01:12:30;;;;;;;;;;;;;;;1.86;63.33;100535.66;4220162;28;20014;-67
2023/11/26 01:14:32;;;;;;;;;;;;;;;1.76;63.04;100523.09;4219926;28;20018;-67
2023/11/26 01:16:34;;;;;;;;;;;;;;;1.84;63.06;100530.44;4220154;28;20027;-66
2023/11/26 01:18:36;;;;;;;;;;;;;;;1.85;62.94;100539.28;4220048;28;20019;-67
2023/11/26 01:20:39;;;;;;;;;;;;;;;1.86;63.10;100533.81;4219231;28;20458;-68
2023/11/26 01:22:41;;;;;;;;;;;;;;;1.85;62.69;100539.28;4218979;28;19947;-68
2023/11/26 01:24:44;;;;;;;;;;;;;;;1.85;62.28;100539.28;4219047;28;20011;-68
2023/11/26 01:26:46;;;;;;;;;;;;;;;1.84;62.30;100543.75;4219562;28;20023;-68
2023/11/26 01:28:49;;;;;;;;;;;;;;;1.84;62.27;100540.25;4203383;28;20025;-68
2023/11/26 01:30:51;;;;;;;;;;;;;;;1.82;61.83;100545.72;4219003;28;20051;-70
2023/11/26 01:32:53;;;;;;;;;;;;;;;1.82;61.67;100534.19;4202299;28;20019;-68
2023/11/26 01:34:57;;;;;;;;;;;;;;;1.81;61.90;100536.03;4218973;28;20010;-68
2023/11/26 01:36:59;;;;;;;;;;;;;;;1.82;61.65;100534.19;4219984;28;20015;-70
2023/11/26 01:39:02;;;;;;;;;;;;;;;1.80;61.41;100547.63;4218177;28;20023;-68
2023/11/26 01:41:05;;;;;;;;;;;;;;;1.80;61.26;100543.19;4219872;28;20028;-67
2023/11/26 01:43:07;;;;;;;;;;;;;;;1.78;60.89;100545.09;4219422;28;19934;-68
2023/11/26 01:45:10;;;;;;;;;;;;;;;1.78;60.74;100542.44;4219622;28;20011;-68
2023/11/26 01:47:12;;;;;;;;;;;;;;;1.77;60.78;100545.22;4217886;28;20018;-68
2023/11/26 01:49:14;;;;;;;;;;;;;;;1.76;60.94;100539.06;4218356;28;20453;-69
2023/11/26 01:51:16;;;;;;;;;;;;;;;1.77;61.12;100547.88;4219585;28;20034;-67
2023/11/26 01:53:18;;;;;;;;;;;;;;;1.75;61.18;100550.66;4218998;28;20015;-69
2023/11/26 01:55:21;;;;;;;;;;;;;;;1.75;61.26;100548.00;4218789;28;20360;-69
2023/11/26 01:57:24;;;;;;;;;;;;;;;1.75;60.67;100550.66;4218178;28;20024;-66
2023/11/26 01:59:27;;;;;;;;;;;;;;;1.74;60.63;100556.97;4217856;28;20007;-71
2023/11/26 02:01:29;;;;;;;;;;;;;;;1.73;60.72;100557.94;4217103;28;20022;-67
2023/11/26 02:03:31;;;;;;;;;;;;;;;1.74;60.94;100561.44;4219199;28;19924;-67
2023/11/26 02:05:33;;;;;;;;;;;;;;;1.75;61.20;100558.66;4201846;28;20015;-69
2023/11/26 02:07:34;;;;;;;;;;;;;;;1.74;61.19;100562.31;4217051;28;20457;-68
2023/11/26 02:09:37;;;;;;;;;;;;;;;1.74;61.43;100558.78;4217884;28;19924;-70
2023/11/26 02:11:38;;;;;;;;;;;;;;;1.73;61.51;100560.59;4219071;28;20429;-69
2023/11/26 02:13:48;;;;;;;;;;;;;;;1.72;61.24;100564.22;4217314;28;20015;-67
2023/11/26 02:15:50;;;;;;;;;;;;;;;1.71;61.40;100559.91;4218787;28;20467;-72
2023/11/26 02:17:52;;;;;;;;;;;;;;;1.71;61.89;100562.56;4219084;28;20054;-70
2023/11/26 02:19:57;;;;;;;;;;;;;;;1.71;61.75;100567.00;4217301;28;20018;-67
2023/11/26 02:22:01;;;;;;;;;;;;;;;1.72;61.85;100566.06;4217367;28;20046;-68
2023/11/26 02:24:04;;;;;;;;;;;;;;;1.72;62.17;100563.41;4216882;28;19931;-68
2023/11/26 02:26:06;;;;;;;;;;;;;;;1.72;61.96;100568.72;4201951;28;20020;-68
2023/11/26 02:28:09;;;;;;;;;;;;;;;1.69;61.90;100572.47;4219339;28;20433;-68
2023/11/26 02:30:12;;;;;;;;;;;;;;;1.67;62.10;100569.09;4219017;28;20022;-71
2023/11/26 02:32:15;;;;;;;;;;;;;;;1.68;62.33;100578.78;4218733;28;20015;-69
2023/11/26 02:34:16;;;;;;;;;;;;;;;1.68;62.19;100584.09;4218912;28;20042;-73
2023/11/26 02:36:18;;;;;;;;;;;;;;;1.69;62.36;100584.94;4219026;28;20015;-67
2023/11/26 02:38:20;;;;;;;;;;;;;;;1.67;61.81;100585.06;4219323;28;20014;-67
2023/11/26 02:40:22;;;;;;;;;;;;;;;1.67;61.96;100590.38;4222784;28;20011;-67
2023/11/26 02:42:26;;;;;;;;;;;;;;;1.68;62.25;100586.78;4222233;28;20027;-68
2023/11/26 02:44:28;;;;;;;;;;;;;;;1.69;61.97;100587.59;4222362;28;19931;-67
2023/11/26 02:46:29;;;;;;;;;;;;;;;1.68;61.92;100589.44;4204657;28;20008;-68
2023/11/26 02:48:31;;;;;;;;;;;;;;;1.63;62.10;100586.31;4223086;28;19924;-66
2023/11/26 02:50:33;;;;;;;;;;;;;;;1.68;61.97;100588.56;4222167;28;20015;-69
2023/11/26 02:52:35;;;;;;;;;;;;;;;1.67;61.59;100593.06;4222442;28;20434;-69
2023/11/26 02:54:37;;;;;;;;;;;;;;;1.68;61.95;100594.75;4221617;28;20011;-67
2023/11/26 02:56:42;;;;;;;;;;;;;;;1.68;62.12;100604.53;4221211;28;20457;-71
2023/11/26 02:58:44;;;;;;;;;;;;;;;1.67;62.59;100609.03;4222620;28;20014;-69
2023/11/26 03:00:47;;;;;;;;;;;;;;;1.68;62.86;100605.41;4219741;28;20014;-68
2023/11/26 03:02:48;;;;;;;;;;;;;;;1.68;62.77;100608.06;4196211;28;20040;-69
2023/11/26 03:04:53;;;;;;;;;;;;;;;1.68;62.92;100602.75;4220551;28;20054;-71
2023/11/26 03:06:54;;;;;;;;;;;;;;;1.67;62.73;100603.69;4220540;28;20472;-67
2023/11/26 03:09:00;;;;;;;;;;;;;;;1.69;63.16;100609.75;4220561;28;20044;-68
2023/11/26 03:13:35;;;;;;;;;;;;;;;1.68;63.60;100613.41;4137727;28;20016;-70
2023/11/26 03:15:39;;;;;;;;;;;;;;;1.66;63.64;100620.63;4136817;28;20032;-70
2023/11/26 03:17:41;;;;;;;;;;;;;;;1.65;63.94;100616.31;4136713;28;20025;-68
2023/11/26 03:19:46;;;;;;;;;;;;;;;1.66;64.13;100615.31;4214876;28;20031;-67
2023/11/26 03:21:49;;;;;;;;;;;;;;;1.67;64.12;100613.50;4235993;27;20022;-67
2023/11/26 03:23:51;;;;;;;;;;;;;;;1.67;64.03;100614.34;4221761;28;20023;-67
2023/11/26 03:25:53;;;;;;;;;;;;;;;1.67;64.07;100610.84;4220489;28;20490;-68
2023/11/26 03:27:55;;;;;;;;;;;;;;;1.67;64.44;100618.84;4220781;28;20027;-67
2023/11/26 03:29:57;;;;;;;;;;;;;;;1.68;64.32;100609.88;4221402;28;20054;-67
2023/11/26 03:32:01;;;;;;;;;;;;;;;1.67;64.43;100609.03;4212320;28;19971;-68
2023/11/26 03:34:08;;;;;;;;;;;;;;;1.69;64.73;100614.22;4221035;28;20015;-67
2023/11/26 03:36:10;;;;;;;;;;;;;;;1.70;64.97;100613.28;4221901;28;20014;-69
2023/11/26 03:38:12;;;;;;;;;;;;;;;1.68;65.10;100613.41;4221606;28;20031;-67
2023/11/26 03:40:15;;;;;;;;;;;;;;;1.69;64.93;100620.38;4221832;28;20784;-68
2023/11/26 03:42:16;;;;;;;;;;;;;;;1.69;65.38;100614.22;4203311;28;20818;-68
2023/11/26 03:44:18;;;;;;;;;;;;;;;1.69;64.93;100604.41;4221203;28;20010;-69
2023/11/26 03:46:20;;;;;;;;;;;;;;;1.69;65.35;100617.72;4221607;28;19935;-69
2023/11/26 03:48:23;;;;;;;;;;;;;;;1.69;65.21;100611.56;4222178;28;20010;-67
2023/11/26 03:50:25;;;;;;;;;;;;;;;1.69;65.58;100606.25;4219899;28;20019;-70
2023/11/26 03:52:27;;;;;;;;;;;;;;;1.67;65.57;100608.19;4221883;28;20030;-69
2023/11/26 03:54:29;;;;;;;;;;;;;;;1.67;65.73;100613.50;4222241;28;20614;-67
2023/11/26 03:56:31;;;;;;;;;;;;;;;1.67;65.91;100614.34;4220007;28;20014;-67
2023/11/26 03:58:32;;;;;;;;;;;;;;;1.66;65.97;100615.31;4221275;28;20022;-68
2023/11/26 04:00:34;;;;;;;;;;;;;;;1.65;66.06;100618.97;4220861;28;19924;-68
2023/11/26 04:02:38;;;;;;;;;;;;;;;1.65;65.83;100618.97;4221085;28;20008;-67
2023/11/26 04:04:41;;;;;;;;;;;;;;;1.65;66.08;100620.78;4220694;27;20366;-70
2023/11/26 04:06:43;;;;;;;;;;;;;;;1.65;65.98;100626.13;4219758;28;20022;-67
2023/11/26 04:08:45;;;;;;;;;;;;;;;1.64;66.26;100629.72;4221811;27;20026;-67
2023/11/26 04:10:47;;;;;;;;;;;;;;;1.63;66.16;100628.91;4220190;27;20011;-67
2023/11/26 04:12:49;;;;;;;;;;;;;;;1.62;66.67;100632.50;4220183;28;20014;-66
2023/11/26 04:14:52;;;;;;;;;;;;;;;1.62;66.84;100632.50;4219962;28;20019;-70
2023/11/26 04:16:54;;;;;;;;;;;;;;;1.62;66.86;100633.34;4219178;28;20615;-67
2023/11/26 04:18:56;;;;;;;;;;;;;;;1.63;66.75;100642.22;4221339;28;20457;-68
2023/11/26 04:20:59;;;;;;;;;;;;;;;1.60;66.83;100643.28;4220662;28;20019;-68
2023/11/26 04:23:00;;;;;;;;;;;;;;;1.60;67.27;100639.78;4220063;28;20043;-68
2023/11/26 04:25:02;;;;;;;;;;;;;;;1.59;67.36;100651.41;4221507;28;19975;-70
2023/11/26 04:27:04;;;;;;;;;;;;;;;1.59;67.28;100651.41;4221471;28;20409;-69
2023/11/26 04:29:06;;;;;;;;;;;;;;;1.59;67.58;100646.91;4221444;28;20019;-68
2023/11/26 04:31:08;;;;;;;;;;;;;;;1.59;67.55;100659.38;4219367;28;20011;-68
2023/11/26 04:33:10;;;;;;;;;;;;;;;1.58;67.65;100660.34;4218446;28;20014;-68
2023/11/26 04:35:12;;;;;;;;;;;;;;;1.58;68.04;100661.19;4219963;28;20042;-68
2023/11/26 04:37:15;;;;;;;;;;;;;;;1.58;67.99;100666.53;4220788;28;20027;-68
2023/11/26 04:39:16;;;;;;;;;;;;;;;1.58;68.26;100658.53;4220720;28;20345;-68
2023/11/26 04:41:18;;;;;;;;;;;;;;;1.58;67.95;100658.53;4221788;28;20482;-67
2023/11/26 04:43:22;;;;;;;;;;;;;;;1.59;68.00;100670.03;4221587;28;20007;-68
2023/11/26 04:45:24;;;;;;;;;;;;;;;1.57;68.27;100664.81;4201668;28;20122;-68
2023/11/26 04:47:26;;;;;;;;;;;;;;;1.57;68.63;100664.81;4220047;28;19932;-67
2023/11/26 04:49:28;;;;;;;;;;;;;;;1.56;68.48;100664.94;4220897;28;20030;-69
2023/11/26 04:51:30;;;;;;;;;;;;;;;1.56;69.07;100664.94;4221337;28;19991;-68
2023/11/26 04:53:34;;;;;;;;;;;;;;;1.54;69.26;100675.72;4220985;28;20026;-68
2023/11/26 04:55:36;;;;;;;;;;;;;;;1.54;69.76;100666.88;4220316;28;20019;-68
2023/11/26 04:57:38;;;;;;;;;;;;;;;1.53;69.97;100666.03;4219676;28;20027;-68
2023/11/26 04:59:40;;;;;;;;;;;;;;;1.54;70.21;100672.22;4220479;28;20014;-67
2023/11/26 05:01:43;;;;;;;;;;;;;;;1.53;70.37;100670.50;4219926;28;20014;-71
2023/11/26 05:03:45;;;;;;;;;;;;;;;1.53;70.23;100667.84;4220252;28;20019;-69
2023/11/26 05:05:49;;;;;;;;;;;;;;;1.53;70.40;100673.16;4219447;28;21919;-70
2023/11/26 05:07:50;;;;;;;;;;;;;;;1.52;70.49;100680.31;4220663;28;19928;-68
2023/11/26 05:09:55;;;;;;;;;;;;;;;1.52;70.47;100679.44;4219772;28;20019;-69
2023/11/26 05:11:56;;;;;;;;;;;;;;;1.50;70.91;100681.41;4219836;28;20429;-67
2023/11/26 05:13:59;;;;;;;;;;;;;;;1.49;71.65;100683.22;4220091;28;20019;-69
2023/11/26 05:16:01;;;;;;;;;;;;;;;1.48;72.35;100684.19;4219237;28;20026;-69
2023/11/26 05:18:03;;;;;;;;;;;;;;;1.48;72.76;100683.34;4219131;28;20010;-69
2023/11/26 05:20:07;;;;;;;;;;;;;;;1.46;72.98;100690.56;4219716;28;20368;-70
2023/11/26 05:22:09;;;;;;;;;;;;;;;1.40;73.39;100682.09;4220448;28;19991;-71
2023/11/26 05:24:11;;;;;;;;;;;;;;;1.42;73.58;100690.81;4220037;28;20019;-69
2023/11/26 05:26:14;;;;;;;;;;;;;;;1.39;73.37;100691.03;4220211;28;20018;-70
2023/11/26 05:28:16;;;;;;;;;;;;;;;1.40;73.42;100694.56;4219087;28;20006;-70
2023/11/26 05:30:19;;;;;;;;;;;;;;;1.39;73.54;100688.38;4219289;28;20027;-69
2023/11/26 05:32:21;;;;;;;;;;;;;;;1.36;73.72;100693.94;4220194;28;20070;-69
2023/11/26 05:34:23;;;;;;;;;;;;;;;1.36;73.82;100687.78;4219433;28;20449;-69
2023/11/26 05:36:26;;;;;;;;;;;;;;;1.35;74.00;100688.75;4219555;28;20461;-70
2023/11/26 05:38:31;;;;;;;;;;;;;;;1.32;73.83;100692.50;4220459;28;20027;-70
2023/11/26 05:40:33;;;;;;;;;;;;;;;1.34;74.14;100692.38;4219428;28;20006;-70
2023/11/26 05:42:36;;;;;;;;;;;;;;;1.32;74.14;100689.84;4219189;28;20055;-67
2023/11/26 05:44:38;;;;;;;;;;;;;;;1.31;74.19;100690.81;4219698;28;20023;-70
2023/11/26 05:46:41;;;;;;;;;;;;;;;1.30;74.05;100694.44;4220608;28;20034;-70
2023/11/26 05:48:43;;;;;;;;;;;;;;;1.29;74.17;100690.09;4220426;28;19928;-70
2023/11/26 05:50:46;;;;;;;;;;;;;;;1.28;74.39;100699.00;4220127;28;20095;-68
2023/11/26 05:52:48;;;;;;;;;;;;;;;1.28;74.33;100695.53;4219696;28;20018;-68
2023/11/26 05:54:49;;;;;;;;;;;;;;;1.28;74.56;100698.19;4217989;28;20050;-68
2023/11/26 05:56:51;;;;;;;;;;;;;;;1.27;74.50;100702.66;4219689;28;19927;-68
2023/11/26 05:58:55;;;;;;;;;;;;;;;1.28;74.33;100700.84;4219062;28;20027;-68
2023/11/26 06:00:57;;;;;;;;;;;;;;;1.29;74.35;100708.72;4219441;28;20314;-68
2023/11/26 06:02:59;;;;;;;;;;;;;;;1.29;74.55;100710.53;4219655;28;20007;-68
2023/11/26 06:05:01;;;;;;;;;;;;;;;1.28;74.54;100711.47;4217769;28;20019;-68
2023/11/26 06:07:03;;;;;;;;;;;;;;;1.28;74.69;100714.97;4219075;28;20466;-68
2023/11/26 06:09:06;;;;;;;;;;;;;;;1.29;74.52;100711.38;4219604;28;20469;-68
2023/11/26 06:11:08;;;;;;;;;;;;;;;1.29;74.49;100710.53;4220056;28;20010;-68
2023/11/26 06:13:11;;;;;;;;;;;;;;;1.28;74.53;100706.16;4218349;28;20051;-70
2023/11/26 06:15:14;;;;;;;;;;;;;;;1.29;74.57;100710.53;4219313;28;20055;-69
2023/11/26 06:17:15;;;;;;;;;;;;;;;1.30;74.99;100712.19;4219904;28;20373;-69
2023/11/26 06:19:18;;;;;;;;;;;;;;;1.29;75.01;100721.16;4219129;28;19942;-69
2023/11/26 06:21:19;;;;;;;;;;;;;;;1.31;75.23;100717.41;4216148;28;20489;-70
2023/11/26 06:23:20;;;;;;;;;;;;;;;1.31;75.32;100720.06;4218982;28;19936;-69
2023/11/26 06:25:23;;;;;;;;;;;;;;;1.30;75.25;100723.72;4219656;28;20027;-68
2023/11/26 06:27:25;;;;;;;;;;;;;;;1.30;75.34;100721.06;4219046;28;20007;-70
2023/11/26 06:29:27;;;;;;;;;;;;;;;1.30;75.41;100726.38;4218592;28;20469;-70
2023/11/26 06:31:31;;;;;;;;;;;;;;;1.31;75.41;100724.56;4219708;28;20465;-69
2023/11/26 06:33:32;;;;;;;;;;;;;;;1.32;75.72;100726.25;4217730;28;20023;-69
2023/11/26 06:35:33;;;;;;;;;;;;;;;1.32;75.56;100739.56;4219750;28;20289;-70
2023/11/26 06:37:35;;;;;;;;;;;;;;;1.34;75.67;100738.47;4218426;28;20395;-69
2023/11/26 06:39:37;;;;;;;;;;;;;;;1.36;75.96;100741.00;4219859;28;20022;-69
2023/11/26 06:41:41;;;;;;;;;;;;;;;1.36;75.88;100743.66;4219075;28;20014;-70
2023/11/26 06:43:43;;;;;;;;;;;;;;;1.35;75.74;100742.84;4218596;28;20457;-70
2023/11/26 06:45:45;;;;;;;;;;;;;;;1.35;76.06;100745.50;4233526;28;20002;-70
2023/11/26 06:47:48;;;;;;;;;;;;;;;1.35;75.94;100745.50;4219896;28;20349;-70
2023/11/26 06:49:50;;;;;;;;;;;;;;;1.36;76.02;100741.00;4218914;28;19930;-70
2023/11/26 06:51:53;;;;;;;;;;;;;;;1.37;76.11;100737.41;4219771;28;20030;-70
2023/11/26 06:53:55;;;;;;;;;;;;;;;1.37;76.34;100742.72;4219919;28;20396;-70
2023/11/26 06:55:56;;;;;;;;;;;;;;;1.37;76.26;100742.72;4219833;28;20574;-69
2023/11/26 06:57:57;;;;;;;;;;;;;;;1.36;76.53;100746.34;4219504;28;19930;-70
2023/11/26 06:59:59;;;;;;;;;;;;;;;1.36;76.54;100752.50;4219070;28;20023;-70
2023/11/26 07:02:01;;;;;;;;;;;;;;;1.35;76.85;100750.81;4219352;28;20107;-70
2023/11/26 07:04:05;;;;;;;;;;;;;;;1.36;76.85;100751.66;4218393;28;20023;-70
2023/11/26 07:06:08;;;;;;;;;;;;;;;1.36;77.07;100763.13;4219364;28;20027;-69
2023/11/26 07:08:10;;;;;;;;;;;;;;;1.36;77.42;100759.63;4219190;28;20019;-68
2023/11/26 07:10:12;;;;;;;;;;;;;;;1.35;77.38;100757.94;4219518;28;19924;-69
2023/11/26 07:12:14;;;;;;;;;;;;;;;1.35;77.41;100766.78;4219322;28;20377;-68
2023/11/26 07:14:16;;;;;;;;;;;;;;;1.35;77.58;100769.44;4217559;28;19970;-68
2023/11/26 07:16:17;;;;;;;;;;;;;;;1.36;77.80;100770.28;4218243;28;20015;-68
2023/11/26 07:18:19;;;;;;;;;;;;;;;1.34;77.71;100767.75;4220331;28;19948;-68
2023/11/26 07:20:23;;;;;;;;;;;;;;;1.34;77.74;100775.72;4219144;28;20015;-68
2023/11/26 07:22:25;;;;;;;;;;;;;;;1.34;77.94;100777.53;4216265;28;20022;-68
2023/11/26 07:24:27;;;;;;;;;;;;;;;1.32;78.05;100777.66;4218769;28;20446;-68
2023/11/26 07:26:29;;;;;;;;;;;;;;;1.34;77.81;100780.19;4221723;28;20022;-68
2023/11/26 07:28:30;;;;;;;;;;;;;;;1.34;77.70;100782.88;4220954;28;20014;-68
2023/11/26 07:30:32;;;;;;;;;;;;;;;1.32;77.72;100782.16;4221809;28;19999;-69
2023/11/26 07:32:35;;;;;;;;;;;;;;;1.32;77.74;100788.31;4220476;28;20359;-69
2023/11/26 07:34:37;;;;;;;;;;;;;;;1.32;77.72;100779.47;4221646;28;20351;-68
2023/11/26 07:36:40;;;;;;;;;;;;;;;1.33;77.56;100782.00;4221895;28;20026;-69
2023/11/26 07:38:43;;;;;;;;;;;;;;;1.35;77.71;100784.53;4218567;28;20039;-69
2023/11/26 07:40:45;;;;;;;;;;;;;;;1.34;77.44;100783.69;4223085;28;20020;-69
2023/11/26 07:42:48;;;;;;;;;;;;;;;1.34;77.58;100785.53;4224302;28;19995;-68
2023/11/26 07:44:52;;;;;;;;;;;;;;;1.34;77.69;100783.69;4223041;28;20022;-69
2023/11/26 07:46:54;;;;;;;;;;;;;;;1.34;77.52;100789.03;4223455;28;19974;-69
2023/11/26 07:48:56;;;;;;;;;;;;;;;1.34;77.56;100793.50;4222632;28;20022;-68
2023/11/26 07:50:58;;;;;;;;;;;;;;;1.34;77.68;100793.50;4222993;28;19924;-69
2023/11/26 07:53:01;;;;;;;;;;;;;;;1.34;77.48;100789.03;4221607;28;20445;-70
2023/11/26 07:55:04;;;;;;;;;;;;;;;1.35;77.53;100787.19;4222415;28;20026;-69
2023/11/26 07:57:06;;;;;;;;;;;;;;;1.34;77.53;100793.50;4222869;28;20031;-70
2023/11/26 07:59:09;;;;;;;;;;;;;;;1.35;77.77;100801.38;4221962;28;20470;-70
2023/11/26 08:01:12;;;;;;;;;;;;;;;1.35;77.56;100797.84;4221082;28;20018;-69
2023/11/26 08:03:15;;;;;;;;;;;;;;;1.36;77.69;100791.56;4221609;28;20027;-69
2023/11/26 08:05:18;;;;;;;;;;;;;;;1.37;77.29;100790.63;4220460;28;20034;-68
2023/11/26 08:07:23;;;;;;;;;;;;;;;1.36;77.13;100789.75;4221810;28;20501;-71
2023/11/26 08:09:26;;;;;;;;;;;;;;;1.36;77.09;100792.41;4221130;28;20027;-69
2023/11/26 08:11:34;;;;;;;;;;;;;;;1.36;76.91;100794.22;4221908;27;19954;-70
2023/11/26 08:13:38;;;;;;;;;;;;;;;1.39;77.23;100789.50;4220054;28;20370;-70
2023/11/26 08:15:40;;;;;;;;;;;;;;;1.42;77.84;100785.78;4221053;28;19931;-71
2023/11/26 08:17:42;;;;;;;;;;;;;;;1.43;77.59;100792.81;4221834;28;20047;-68
2023/11/26 08:19:45;;;;;;;;;;;;;;;1.45;77.19;100788.22;4221456;28;20022;-70
2023/11/26 08:21:47;;;;;;;;;;;;;;;1.47;76.89;100794.25;4221736;28;20030;-69
2023/11/26 08:23:51;;;;;;;;;;;;;;;1.49;76.26;100789.69;4221586;28;20026;-70
2023/11/26 08:25:56;;;;;;;;;;;;;;;1.48;76.35;100785.31;4221299;28;20015;-70
2023/11/26 08:28:00;;;;;;;;;;;;;;;1.54;75.85;100794.66;4220849;28;20015;-72
2023/11/26 08:30:09;;;;;;;;;;;;;;;1.57;75.73;100797.09;4220037;28;20020;-70
2023/11/26 08:32:11;;;;;;;;;;;;;;;1.59;75.56;100796.00;4221007;28;19923;-69
2023/11/26 08:34:15;;;;;;;;;;;;;;;1.60;75.23;100791.53;4219122;28;20626;-71
2023/11/26 08:36:18;;;;;;;;;;;;;;;1.65;75.03;100801.84;4219125;28;20899;-68
2023/11/26 08:38:20;;;;;;;;;;;;;;;1.67;74.74;100802.56;4221914;28;20023;-69
2023/11/26 08:40:21;;;;;;;;;;;;;;;1.72;74.32;100811.03;4221686;28;20014;-70
2023/11/26 08:42:24;;;;;;;;;;;;;;;1.73;73.77;100808.25;4220111;28;20023;-69
2023/11/26 08:44:27;;;;;;;;;;;;;;;1.76;73.56;100821.31;4220452;28;20054;-68
2023/11/26 08:46:29;;;;;;;;;;;;;;;1.81;73.36;100815.66;4221711;28;19959;-68
2023/11/26 08:48:31;;;;;;;;;;;;;;;1.85;73.11;100813.59;4220825;28;20015;-69
2023/11/26 08:50:34;;;;;;;;;;;;;;;1.90;73.02;100817.59;4220120;28;20023;-68
2023/11/26 08:52:35;;;;;;;;;;;;;;;1.97;73.12;100821.50;4219937;28;19928;-68
2023/11/26 08:54:37;;;;;;;;;;;;;;;2.04;73.10;100826.31;4220096;28;19969;-71
2023/11/26 08:56:39;;;;;;;;;;;;;;;2.07;72.37;100824.28;4219825;28;19999;-71
2023/11/26 08:58:42;;;;;;;;;;;;;;;2.12;72.68;100829.25;4219162;28;20023;-70
2023/11/26 09:00:44;;;;;;;;;;;;;;;2.17;72.18;100829.72;4219683;28;20018;-72
2023/11/26 09:02:45;;;;;;;;;;;;;;;2.21;71.90;100831.19;4220534;28;20026;-69
2023/11/26 09:04:46;;;;;;;;;;;;;;;2.26;71.79;100834.34;4220103;28;20023;-66
2023/11/26 09:06:48;;;;;;;;;;;;;;;2.31;71.65;100844.66;4219653;28;19951;-70
2023/11/26 09:08:50;;;;;;;;;;;;;;;2.37;71.69;100836.16;4220266;28;20007;-70
2023/11/26 09:10:55;;;;;;;;;;;;;;;2.43;71.66;100845.47;4218876;28;20053;-69
2023/11/26 09:12:57;;;;;;;;;;;;;;;2.49;71.67;100842.31;4220649;28;20446;-71
2023/11/26 09:15:00;;;;;;;;;;;;;;;2.56;71.99;100838.22;4220935;28;20014;-71
2023/11/26 09:17:03;;;;;;;;;;;;;;;2.61;71.60;100837.84;4220419;28;20015;-71
2023/11/26 09:19:05;;;;;;;;;;;;;;;2.67;71.24;100842.69;4219199;28;20015;-70
2023/11/26 09:21:07;;;;;;;;;;;;;;;2.72;71.36;100839.66;4219313;28;20446;-71
2023/11/26 09:23:09;;;;;;;;;;;;;;;2.77;71.61;100840.94;4219060;28;20015;-70
2023/11/26 09:25:13;;;;;;;;;;;;;;;2.82;71.88;100836.13;4220089;28;20014;-73
2023/11/26 09:27:16;;;;;;;;;;;;;;;2.89;71.74;100837.28;4218682;28;20027;-71
2023/11/26 09:29:22;;;;;;;;;;;;;;;2.95;72.13;100830.63;4219644;28;20010;-72
2023/11/26 09:31:27;;;;;;;;;;;;;;;3.00;71.83;100833.75;4218634;28;20027;-72
2023/11/26 09:33:31;;;;;;;;;;;;;;;3.04;71.48;100835.22;4219099;28;19924;-72
2023/11/26 09:35:34;;;;;;;;;;;;;;;3.09;71.42;100832.16;4218941;28;20436;-74
2023/11/26 09:37:36;;;;;;;;;;;;;;;3.12;70.95;100831.03;4219083;28;20629;-72
2023/11/26 09:39:38;;;;;;;;;;;;;;;3.16;71.00;100833.34;4218662;28;19991;-73
2023/11/26 09:41:40;;;;;;;;;;;;;;;3.20;70.92;100832.13;4219569;28;20019;-70
2023/11/26 09:43:42;;;;;;;;;;;;;;;3.23;70.83;100834.53;4217009;28;20323;-71
2023/11/26 09:45:44;;;;;;;;;;;;;;;3.28;70.92;100825.31;4218525;28;20473;-68
2023/11/26 09:47:47;;;;;;;;;;;;;;;3.32;71.06;100834.75;4219004;28;20373;-67
2023/11/26 09:49:50;;;;;;;;;;;;;;;3.36;70.69;100838.88;4219353;28;20023;-70
2023/11/26 09:51:54;;;;;;;;;;;;;;;3.39;70.25;100838.59;4218191;28;19999;-70
2023/11/26 09:54:03;;;;;;;;;;;;;;;3.39;70.28;100836.78;4217711;28;19924;-70
2023/11/26 09:56:16;;;;;;;;;;;;;;;3.40;69.81;100834.94;4216312;28;20418;-71
2023/11/26 09:58:42;;;;;;;;;;;;;;;3.39;69.52;100836.78;4216832;28;20653;-70
2023/11/26 10:00:55;;;;;;;;;;;;;;;3.45;69.28;100843.44;4216314;28;20397;-70
2023/11/26 10:03:07;;;;;;;;;;;;;;;3.44;69.94;100828.38;4216174;28;19928;-69
2023/11/26 10:05:22;;;;;;;;;;;;;;;3.51;69.64;100834.03;4215245;28;20018;-69
2023/11/26 10:07:32;;;;;;;;;;;;;;;3.50;69.41;100833.22;4215934;28;20018;-69
2023/11/26 10:09:36;;;;;;;;;;;;;;;3.52;69.24;100827.75;4215954;28;20023;-69
2023/11/26 10:11:41;;;;;;;;;;;;;;;3.55;69.42;100825.66;4215041;28;20490;-69
2023/11/26 10:13:43;;;;;;;;;;;;;;;3.55;69.45;100841.66;4216183;28;20406;-69
2023/11/26 10:15:47;;;;;;;;;;;;;;;3.57;69.20;100830.84;4216932;28;20397;-69
2023/11/26 10:18:03;;;;;;;;;;;;;;;3.59;68.94;100836.94;4199928;28;20497;-67
2023/11/26 10:20:18;;;;;;;;;;;;;;;3.57;68.64;100845.09;4215033;28;20042;-68
2023/11/26 10:22:20;;;;;;;;;;;;;;;3.59;68.86;100839.63;4215740;28;20023;-70
2023/11/26 10:24:22;;;;;;;;;;;;;;;3.61;69.02;100838.47;4216909;28;20026;-70
2023/11/26 10:26:26;;;;;;;;;;;;;;;3.62;68.83;100839.34;4214516;28;20014;-66
2023/11/26 10:28:27;;;;;;;;;;;;;;;3.66;69.01;100839.94;4217079;28;20447;-71
2023/11/26 10:30:29;;;;;;;;;;;;;;;3.69;68.65;100840.50;4213931;28;20038;-70
2023/11/26 10:32:30;;;;;;;;;;;;;;;3.77;66.01;100834.53;4216651;28;20015;-68
2023/11/26 10:34:33;;;;;;;;;;;;;;;3.86;66.69;100836.41;4218113;28;19978;-68
2023/11/26 10:36:36;;;;;;;;;;;;;;;3.92;67.96;100835.88;4216226;28;19932;-68
2023/11/26 10:38:38;;;;;;;;;;;;;;;3.97;68.84;100839.00;4219265;28;20016;-70
2023/11/26 10:40:41;;;;;;;;;;;;;;;4.00;68.49;100837.91;4218028;28;20019;-70
2023/11/26 10:42:43;;;;;;;;;;;;;;;4.03;68.51;100844.78;4218258;28;20445;-69